Relevés horaires Les Attelas (Suisse)


Relevés horaires à Les Attelas - Lundi 01 Févr. 2016
Heure UTC1 Température [°C] Vent [km/h] Hum. [%] Pres.4 [hPa] Visi. [Km] Nébu. [octa] Préc.5 [mm] Cond.
2m. Res. Ros. Dir.2 Vit. Moy. Raf.3
23:00 3.6 1.2 -32.1 ONO 9.3 14.8 24.1 5 700 -- -- -- --
22:00 3.9 0.7 -30.4 SSO 13.0 20.4 25.9 6 700(-0.4/3h) -- -- -- --
21:00 4.4 1.7 -31.7 SO 11.1 16.7 20.4 5 700(-0.3/3h) -- -- -- --
20:00 4.1 0.4 -28.8 SSO 16.7 16.7 20.4 7 700(-0.3/3h) -- -- -- --
19:00 4.2 2.4 -32.9 S 7.4 11.1 16.7 5 700(0.1/3h) -- -- -- --
18:00 3.3 0.8 -26.9 S 9.3 13.0 18.5 9 700(0.4/3h) -- -- -- --
17:00 4.5 2.2 -31.7 O 9.3 13.0 18.5 5 700(0.5/3h) -- -- -- --
16:00 5.3 3.6 -37.5 NNO 7.4 9.3 13.0 3 700(0.4/3h) -- -- -- --
15:00 4.9 2.7 -24.3 OSO 9.3 13.0 16.7 10 700(0.2/3h) -- -- -- --
14:00 4.8 3.1 -25.0 SSO 7.4 11.1 16.7 9 700(0.3/3h) -- -- -- --
13:00 4.7 2.1 -19.6 S 11.1 13.0 16.7 15 700(0.9/3h) -- -- -- --
12:00 3.6 0.1 -16.9 S 14.8 22.2 33.3 21 700(1.5/3h) -- -- -- --
11:00 2.6 -1.8 -19.5 S 18.5 18.5 24.1 18 700(1.7/3h) -- -- -- --
10:00 2.2 -0.5 -19.2 S 9.3 11.1 20.4 19 700(1.7/3h) -- -- -- --
09:00 1.6 -1.2 -17.5 S 9.3 22.2 33.3 23 700(1.5/3h) -- -- -- --
08:00 1.0 -0.7 -15.7 SSE 5.6 22.2 33.3 27 700(1.3/3h) -- -- -- --
07:00 -1.8 -6.2 -7.7 S 13.0 20.4 27.8 64 700(0.8/3h) -- -- -- --
06:00 -2.8 -5.8 -3.2 S 7.4 35.2 66.7 97 700(1.0/3h) -- -- -- --
05:00 -2.5 -7.5 -2.5 NO 14.8 20.4 40.7 100 700(0.5/3h) -- -- -- --
04:00 -1.8 -7.3 -1.8 NO 18.5 20.4 51.9 100 700(0.0/3h) -- -- -- --
03:00 -1.5 -8.2 -2.4 NO 27.8 35.2 66.7 94 700(-0.5/3h) -- -- -- --
02:00 -1.2 -7.1 -1.2 NO 22.2 35.2 61.1 100 700(0.4/3h) -- -- -- --
01:00 -1.2 -7.3 -1.9 NO 24.1 24.1 66.7 95 700(1.5/3h) -- -- -- --
00:00 -1.1 -4.4 -1.3 OSO 9.3 29.6 57.4 99 700(2.0/3h) -- -- -- --

1 Coordinated Universal Time. Actuellement il est 09:00 locale et 07:00 UTC.

2 Le vent souffle depuis la direction indiquée vers la direction oposée.

3 Les rafales max. sont disponible 40 min après l'heure du relevé.

4 Pour les stations d'altitude (plus de 600m) le géopotentiel du niveau le plus proche de la pression obligatoire est indiqué.

5 Les stations disposant d'un diffuseur peuvent indiquer "trace". Cela signifie que des précipitations ont touchés le sol mais que la quantité est inférieure à 0.1 mm.

Copyright

Les données affichées sur cette page sont la propriété exclusive de Météo Suisse.

Récapitulatif de la journée
Température [°C] Vent [km/h] Ensoleillement4 [h] Precipitations totale5 [mm] Pression [Hpa]
Min1 Max.2 Moy.3 Max. Min Max.
-3.2 5.4 19.5 66.7 6 h 54 min 0 700.0 700.0

1 Température minimale relevée entre 18:00 UTC la veille et 18:00 UTC le jour donné.

2 Température maximale relevée entre 06:00 UTC le jour donné et 06:00 UTC le lendemain.

3 Vent moyen de la journée basé sur les relevés horaires.

4 Ensoleillement en heures relevé entre 06:00 UTC la veille et 06:00 UTC le jour donné.

5 Précipitations totales tombées entre 06:00 UTC la jour donné et 06:00 UTC le lendemain.

Graphiques horaires